Heathcote, NY

8:06 PM EDT on September 16, 2014 (GMT -0400)
La Guardia | Change Station
CLOSE
Current Station
Airport
Location: New York,
Elevation: 30 ft
Nearby Weather Stations

Elev 30 ft 40.78 °N, 73.88 °W | Updated 15 minutes ago

Mostly Cloudy
Mostly Cloudy
66 °F
Feels Like 66 °F
N
0
Wind Variable Wind from North

Today
High -- | Low -- °F
--% Chance of Precip.
Yesterday
High -- | Low -- °F
Precip. -- in
6:36 AM 7:02 PM
Last Quarter, 41% visible
Pressure 29.99 in
Visibility 10.0 miles
Clouds Overcast 7000 ft
Dew Point 56 °F
Humidity 70%
Rainfall 0.42 in
Snow Depth Not available.
UV 0 out of 12
Pollen 3.80 out of 12
PM2.5 Good
Flu Activity Not available.
METAR KLGA 162351Z 00000KT 10SM OVC070 19/13 A2999 RMK AO2 SLP155 T01890133 10206 20172 53009

More Conditions Fewer Conditions

Pressure 29.99 in
Visibility 10.0 miles
Clouds Overcast 7000 ft
Dew Point 56 °F
Humidity 70%
Rainfall 0.42 in
Snow Depth Not available.
UV 0 out of 12
Pollen 3.80 out of 12
PM2.5 Good
Flu Activity Not available.
METAR KLGA 162351Z 00000KT 10SM OVC070 19/13 A2999 RMK AO2 SLP155 T01890133 10206 20172 53009

More Conditions Fewer Conditions

10-Day Weather Forecast

Almanac

Astronomy

Sep. 16, 2014 Rise Set
Actual Time 6:36 AM EDT 7:02 PM EDT
Civil Twilight 6:09 AM EDT 7:30 PM EDT
Nautical Twilight 5:36 AM EDT 8:02 PM EDT
Astronomical Twilight 5:03 AM EDT 8:35 PM EDT
Moon No Moon Rise 2:26 PM EDT (9/16)
Length of Visible Light 13h 21m
Length of Day
12h 25m
Tomorrow will be 2m 41s shorter.
Last Quarter, 41% of the Moon is Illuminated
Today
Last Quarter
Sep 24
New
Oct 1
First Quarter
Oct 8
Full
Oct 15
Last Quarter

Today's Extremes

State Highs State Lows

Community

WunderPhotos

Upload Photos

1,753,919 photos uploaded!

Nearby

Air Quality

  Air Quality AQ Index Pollutant
Yesterday Good
OZONE
Yesterday Good
PM2.5
Current Good
PM2.5
Tuesday Good
PM2.5
Tuesday Good
OZONE
Wednesday Good
PM2.5
Wednesday Good
OZONE

Snow Depth

Station Depth Elevation
No new snow has been reported.

Earthquake Activity

City Distance Mag. Time & Date
No recent earthquake activity has been reported nearby.
Minimum magnitude displayed is 2.5.

Coastal Water Temperatures

Place Temperature
Bridgeport, CT 69.1 °F

Nearby Weather Stations